createdAt,value
2023-01-17T00:02:19.873Z,3.62
2023-01-17T00:05:05.300Z,3.62
2023-01-17T00:07:50.308Z,3.63
2023-01-17T00:10:17.988Z,3.64
2023-01-17T00:12:45.645Z,3.66
2023-01-17T00:15:13.254Z,3.66
2023-01-17T00:17:41.238Z,3.66
2023-01-17T00:20:26.755Z,3.67
2023-01-17T00:23:11.728Z,3.70
2023-01-17T00:25:56.634Z,3.72
2023-01-17T00:28:23.124Z,3.75
2023-01-17T00:30:50.044Z,3.77
2023-01-17T00:33:16.419Z,3.78
2023-01-17T00:35:42.848Z,3.78
2023-01-17T00:38:09.684Z,3.80
2023-01-17T00:40:36.048Z,3.82
2023-01-17T00:43:21.682Z,3.82
2023-01-17T00:46:06.592Z,3.83
2023-01-17T00:48:51.580Z,3.84
2023-01-17T00:51:36.390Z,3.84
2023-01-17T00:54:21.701Z,3.83
2023-01-17T00:57:06.582Z,3.84
2023-01-17T00:59:51.742Z,3.84
2023-01-17T01:02:36.684Z,3.84
2023-01-17T01:05:21.989Z,3.83
2023-01-17T01:08:06.912Z,3.81
2023-01-17T01:10:51.735Z,3.81
2023-01-17T01:13:36.684Z,3.78
2023-01-17T01:16:21.955Z,3.76
2023-01-17T01:19:07.300Z,3.74
2023-01-17T01:21:52.187Z,3.72
2023-01-17T01:24:36.941Z,3.71
2023-01-17T01:27:22.295Z,3.71
2023-01-17T01:30:07.122Z,3.70
2023-01-17T01:32:52.085Z,3.68
2023-01-17T01:35:19.909Z,3.67
2023-01-17T01:37:47.931Z,3.67
2023-01-17T01:40:15.797Z,3.65
2023-01-17T01:42:43.359Z,3.65
2023-01-17T01:45:10.951Z,3.65
2023-01-17T01:47:38.732Z,3.65
2023-01-17T01:50:06.659Z,3.66
2023-01-17T01:52:34.266Z,3.64
2023-01-17T01:55:01.850Z,3.63
2023-01-17T01:57:29.449Z,3.62
2023-01-17T01:59:57.404Z,3.61
2023-01-17T02:02:25.642Z,3.59
2023-01-17T02:04:53.184Z,3.53
2023-01-17T02:07:20.792Z,3.50
2023-01-17T02:09:48.393Z,3.49
2023-01-17T02:12:16.113Z,3.47
2023-01-17T02:14:44.156Z,3.44
2023-01-17T02:17:11.761Z,3.40
2023-01-17T02:19:39.367Z,3.35
2023-01-17T02:22:06.897Z,3.31
2023-01-17T02:24:34.685Z,3.29
2023-01-17T02:27:02.661Z,3.27
2023-01-17T02:29:30.220Z,3.23
2023-01-17T02:31:57.863Z,3.22
2023-01-17T02:34:25.459Z,3.20
2023-01-17T02:36:53.269Z,3.15
2023-01-17T02:39:21.247Z,3.02
2023-01-17T02:41:48.824Z,2.94
2023-01-17T02:44:16.387Z,2.89
2023-01-17T02:46:44.290Z,2.81
2023-01-17T02:49:11.886Z,2.71
2023-01-17T02:51:39.863Z,2.67
2023-01-17T02:54:07.439Z,2.68
2023-01-17T02:56:34.979Z,2.70
2023-01-17T02:59:02.547Z,2.75
2023-01-17T03:01:31.539Z,2.78
2023-01-17T03:03:59.632Z,2.83
2023-01-17T03:06:27.218Z,2.84
2023-01-17T03:08:55.101Z,2.86
2023-01-17T03:11:22.680Z,2.87
2023-01-17T03:13:50.431Z,2.87
2023-01-17T03:16:18.400Z,2.86
2023-01-17T03:18:46.011Z,2.81
2023-01-17T03:21:13.603Z,2.73
2023-01-17T03:23:41.196Z,2.51
2023-01-17T03:26:08.857Z,2.24
2023-01-17T03:28:36.818Z,2.04
2023-01-17T03:31:04.777Z,1.88
2023-01-17T03:33:32.361Z,1.76
2023-01-17T03:35:59.905Z,1.69
2023-01-17T03:38:27.758Z,1.61
2023-01-17T03:40:55.725Z,1.56
2023-01-17T03:43:23.311Z,1.51
2023-01-17T03:45:52.170Z,1.48
2023-01-17T03:48:19.842Z,1.44
2023-01-17T03:50:47.640Z,1.43
2023-01-17T03:53:15.604Z,1.41
2023-01-17T03:55:43.153Z,1.41
2023-01-17T03:58:10.743Z,1.40
2023-01-17T04:00:38.335Z,1.39
2023-01-17T04:03:05.919Z,1.39
2023-01-17T04:05:33.860Z,1.40
2023-01-17T04:08:01.470Z,1.39
2023-01-17T04:10:29.028Z,1.41
2023-01-17T04:12:56.654Z,1.41
2023-01-17T04:15:25.537Z,1.43
2023-01-17T04:17:53.508Z,1.45
2023-01-17T04:20:21.074Z,1.44
2023-01-17T04:22:48.698Z,1.45
2023-01-17T04:25:16.261Z,1.47
2023-01-17T04:27:43.865Z,1.48
2023-01-17T04:30:11.838Z,1.47
2023-01-17T04:32:39.418Z,1.49
2023-01-17T04:35:07.257Z,1.49
2023-01-17T04:37:35.187Z,1.51
2023-01-17T04:40:03.550Z,1.54
2023-01-17T04:42:31.531Z,1.56
2023-01-17T04:44:59.200Z,1.59
2023-01-17T04:47:26.788Z,1.61
2023-01-17T04:49:54.731Z,1.62
2023-01-17T04:52:22.317Z,1.64
2023-01-17T04:54:50.377Z,1.65
2023-01-17T04:57:17.965Z,1.67
2023-01-17T04:59:46.023Z,1.69
2023-01-17T05:02:13.624Z,1.69
2023-01-17T05:04:41.389Z,1.73
2023-01-17T05:07:09.417Z,1.75
2023-01-17T05:09:36.986Z,1.78
2023-01-17T05:12:04.584Z,1.79
2023-01-17T05:14:34.418Z,1.83
2023-01-17T05:17:03.159Z,1.85
2023-01-17T05:19:31.916Z,1.87
2023-01-17T05:22:04.135Z,1.90
2023-01-17T05:24:32.405Z,1.92
2023-01-17T05:27:03.276Z,1.93
2023-01-17T05:29:32.374Z,1.94
2023-01-17T05:31:59.980Z,1.95
2023-01-17T05:34:27.553Z,1.95
2023-01-17T05:36:55.157Z,1.95
2023-01-17T05:39:22.785Z,1.99
2023-01-17T05:41:51.911Z,1.99
2023-01-17T05:44:19.527Z,1.99
2023-01-17T05:46:47.174Z,2.01
2023-01-17T05:49:14.768Z,2.01
2023-01-17T05:51:42.468Z,2.00
2023-01-17T05:54:10.430Z,1.99
2023-01-17T05:56:38.170Z,1.98
2023-01-17T05:59:05.872Z,1.96
2023-01-17T06:01:33.479Z,1.95
2023-01-17T06:04:01.582Z,1.93
2023-01-17T06:06:29.818Z,1.91
2023-01-17T06:08:57.509Z,1.89
2023-01-17T06:11:25.131Z,1.89
2023-01-17T06:13:52.794Z,1.91
2023-01-17T06:16:20.476Z,1.92
2023-01-17T06:18:48.324Z,1.92
2023-01-17T06:21:15.985Z,1.93
2023-01-17T06:23:43.635Z,1.93
2023-01-17T06:26:11.600Z,1.92
2023-01-17T06:28:39.646Z,1.90
2023-01-17T06:31:08.041Z,1.84
2023-01-17T06:33:35.804Z,1.79
2023-01-17T06:36:03.606Z,1.73
2023-01-17T06:38:31.217Z,1.69
2023-01-17T06:41:00.631Z,1.66
2023-01-17T06:43:28.759Z,1.62
2023-01-17T06:45:56.455Z,1.62
2023-01-17T06:48:24.440Z,1.64
2023-01-17T06:50:52.198Z,1.68
2023-01-17T06:53:19.841Z,1.69
2023-01-17T06:55:47.480Z,1.73
2023-01-17T06:58:15.287Z,1.76
2023-01-17T07:00:44.759Z,1.77
2023-01-17T07:03:12.410Z,1.80
2023-01-17T07:05:41.790Z,1.80
2023-01-17T07:08:10.344Z,1.81
2023-01-17T07:10:38.439Z,1.81
2023-01-17T07:13:06.309Z,1.82
2023-01-17T07:15:34.060Z,1.83
2023-01-17T07:18:01.670Z,1.84
2023-01-17T07:20:29.959Z,1.86
2023-01-17T07:22:57.618Z,1.87
2023-01-17T07:25:27.615Z,1.89
2023-01-17T07:27:58.889Z,1.89
2023-01-17T07:30:27.159Z,1.89
2023-01-17T07:32:56.205Z,1.86
2023-01-17T07:35:24.277Z,1.84
2023-01-17T07:37:51.971Z,1.80
2023-01-17T07:40:20.131Z,1.77
2023-01-17T07:42:47.871Z,1.74
2023-01-17T07:45:16.116Z,1.71
2023-01-17T07:47:43.852Z,1.67
2023-01-17T07:50:11.663Z,1.67
2023-01-17T07:52:39.366Z,1.66
2023-01-17T07:55:07.064Z,1.66
2023-01-17T07:57:35.401Z,1.66
2023-01-17T08:00:03.200Z,1.68
2023-01-17T08:02:30.959Z,1.68
2023-01-17T08:04:58.784Z,1.73
2023-01-17T08:07:26.409Z,1.77
2023-01-17T08:09:55.315Z,1.83
2023-01-17T08:12:23.177Z,1.89
2023-01-17T08:14:51.199Z,1.93
2023-01-17T08:17:20.557Z,1.99
2023-01-17T08:19:50.344Z,2.05
2023-01-17T08:22:18.548Z,2.08
2023-01-17T08:24:46.439Z,2.11
2023-01-17T08:27:14.350Z,2.14
2023-01-17T08:29:47.275Z,2.16
2023-01-17T08:32:15.203Z,2.18
2023-01-17T08:34:43.361Z,2.18
2023-01-17T08:37:11.580Z,2.17
2023-01-17T08:39:39.597Z,2.19
2023-01-17T08:42:07.431Z,2.21
2023-01-17T08:44:35.289Z,2.22
2023-01-17T08:47:03.335Z,2.22
2023-01-17T08:49:31.297Z,2.23
2023-01-17T08:51:59.075Z,2.25
2023-01-17T08:54:27.045Z,2.25
2023-01-17T08:56:55.830Z,2.27
2023-01-17T08:59:25.342Z,2.28
2023-01-17T09:01:53.240Z,2.27
2023-01-17T09:04:21.116Z,2.25
2023-01-17T09:06:49.017Z,2.28
2023-01-17T09:09:16.848Z,2.30
2023-01-17T09:11:45.236Z,2.32
2023-01-17T09:14:12.980Z,2.35
2023-01-17T09:16:41.045Z,2.42
2023-01-17T09:19:09.034Z,2.52
2023-01-17T09:21:36.880Z,2.61
2023-01-17T09:24:05.755Z,2.67
2023-01-17T09:26:33.647Z,2.64
2023-01-17T09:29:01.462Z,2.63
2023-01-17T09:31:29.306Z,2.62
2023-01-17T09:33:57.246Z,2.64
2023-01-17T09:36:29.375Z,2.70
2023-01-17T09:38:57.192Z,2.79
2023-01-17T09:41:27.843Z,2.86
2023-01-17T09:43:55.696Z,2.98
2023-01-17T09:46:24.188Z,3.12
2023-01-17T09:48:52.270Z,3.20
2023-01-17T09:51:20.035Z,3.25
2023-01-17T09:53:47.872Z,3.26
2023-01-17T09:56:15.642Z,3.24
2023-01-17T09:58:43.569Z,3.23
2023-01-17T10:01:13.092Z,3.26
2023-01-17T10:03:41.515Z,3.28
2023-01-17T10:06:09.458Z,3.33
2023-01-17T10:08:37.281Z,3.37
2023-01-17T10:11:05.197Z,3.43
2023-01-17T10:13:33.736Z,3.55
2023-01-17T10:16:01.668Z,3.72
2023-01-17T10:18:30.592Z,3.94
2023-01-17T10:20:58.484Z,4.29
2023-01-17T10:23:26.447Z,4.83
2023-01-17T10:25:56.025Z,5.51
2023-01-17T10:28:23.880Z,6.12
2023-01-17T10:30:51.794Z,6.65
2023-01-17T10:33:19.543Z,7.21
2023-01-17T10:35:47.383Z,7.72
2023-01-17T10:38:15.992Z,8.33
2023-01-17T10:40:43.839Z,8.92
2023-01-17T10:43:11.907Z,9.38
2023-01-17T10:45:39.911Z,9.70
2023-01-17T10:48:08.239Z,10.03
2023-01-17T10:50:37.281Z,10.28
2023-01-17T10:53:05.682Z,10.51
2023-01-17T10:55:33.453Z,10.87
2023-01-17T10:58:01.589Z,11.21
2023-01-17T11:00:29.506Z,11.58
2023-01-17T11:02:58.291Z,11.83
2023-01-17T11:05:26.752Z,12.00
2023-01-17T11:07:54.868Z,12.08
2023-01-17T11:10:22.946Z,12.02
2023-01-17T11:12:50.931Z,11.71
2023-01-17T11:15:20.782Z,11.77
2023-01-17T11:17:49.147Z,11.70
2023-01-17T11:20:20.310Z,11.79
2023-01-17T11:22:48.173Z,12.01
2023-01-17T11:25:16.066Z,12.13
2023-01-17T11:27:45.158Z,12.26
2023-01-17T11:30:16.226Z,12.39
2023-01-17T11:32:43.928Z,12.18
2023-01-17T11:35:11.936Z,12.16
2023-01-17T11:37:41.147Z,12.07
2023-01-17T11:40:09.509Z,12.26
2023-01-17T11:42:37.358Z,12.32
2023-01-17T11:45:05.190Z,12.04
2023-01-17T11:47:32.963Z,11.81
2023-01-17T11:50:00.861Z,11.87
2023-01-17T11:52:29.030Z,12.11
2023-01-17T11:54:56.725Z,12.21
2023-01-17T11:57:24.838Z,12.30
2023-01-17T11:59:52.864Z,11.94
2023-01-17T12:02:20.738Z,11.30
2023-01-17T12:04:49.728Z,10.86
2023-01-17T12:07:17.672Z,10.74
2023-01-17T12:09:45.589Z,10.57
2023-01-17T12:12:31.015Z,9.90
2023-01-17T12:14:58.829Z,9.06
2023-01-17T12:17:26.795Z,8.37
2023-01-17T12:19:54.954Z,7.78
2023-01-17T12:22:22.569Z,7.35
2023-01-17T12:24:50.650Z,7.13
2023-01-17T12:27:19.993Z,7.04
2023-01-17T12:29:47.814Z,7.11
2023-01-17T12:32:15.732Z,7.36
2023-01-17T12:34:44.046Z,7.67
2023-01-17T12:37:11.828Z,7.84
2023-01-17T12:39:39.807Z,8.02
2023-01-17T12:42:07.809Z,8.15
2023-01-17T12:44:35.608Z,8.16
2023-01-17T12:47:03.486Z,7.82
2023-01-17T12:49:31.366Z,7.38
2023-01-17T12:52:00.237Z,7.11
2023-01-17T12:54:28.158Z,6.95
2023-01-17T12:56:56.558Z,6.85
2023-01-17T12:59:24.471Z,6.73
2023-01-17T13:01:58.083Z,6.66
2023-01-17T13:04:26.872Z,6.49
2023-01-17T13:06:54.861Z,6.26
2023-01-17T13:09:22.815Z,6.18
2023-01-17T13:11:50.633Z,6.07
2023-01-17T13:14:18.580Z,5.91
2023-01-17T13:16:47.160Z,5.81
2023-01-17T13:19:15.287Z,5.76
2023-01-17T13:21:43.288Z,5.87
2023-01-17T13:24:11.403Z,6.02
2023-01-17T13:26:40.555Z,6.16
2023-01-17T13:29:09.202Z,6.30
2023-01-17T13:31:37.132Z,6.38
2023-01-17T13:34:05.040Z,6.52
2023-01-17T13:36:33.054Z,6.73
2023-01-17T13:39:01.115Z,6.96
2023-01-17T13:41:33.054Z,7.12
2023-01-17T13:44:18.482Z,7.19
2023-01-17T13:46:46.370Z,7.27
2023-01-17T13:49:14.240Z,7.36
2023-01-17T13:51:43.636Z,7.46
2023-01-17T13:54:11.478Z,7.38
2023-01-17T13:56:40.109Z,7.21
2023-01-17T13:59:08.292Z,6.97
2023-01-17T14:01:39.904Z,6.79
2023-01-17T14:04:09.106Z,6.68
2023-01-17T14:06:37.091Z,6.71
2023-01-17T14:09:04.957Z,6.87
2023-01-17T14:11:32.992Z,7.00
2023-01-17T14:14:00.971Z,7.11
2023-01-17T14:16:29.450Z,7.17
2023-01-17T14:18:57.504Z,7.10
2023-01-17T14:21:25.477Z,6.91
2023-01-17T14:23:53.338Z,6.77
2023-01-17T14:26:21.434Z,6.62
2023-01-17T14:28:50.148Z,6.49
2023-01-17T14:31:18.035Z,6.43
2023-01-17T14:33:46.168Z,6.50
2023-01-17T14:36:15.531Z,6.57
2023-01-17T14:38:43.387Z,6.59
2023-01-17T14:41:12.860Z,6.53
2023-01-17T14:43:40.830Z,6.57
2023-01-17T14:46:09.339Z,6.66
2023-01-17T14:48:37.422Z,6.81
2023-01-17T14:51:05.261Z,6.78
2023-01-17T14:53:33.876Z,6.66
2023-01-17T14:56:01.819Z,6.50
2023-01-17T14:58:29.607Z,6.26
2023-01-17T15:00:57.539Z,5.97
2023-01-17T15:03:25.604Z,5.67
2023-01-17T15:05:54.207Z,5.40
2023-01-17T15:08:22.343Z,5.15
2023-01-17T15:10:50.394Z,4.93
2023-01-17T15:13:23.355Z,4.73
2023-01-17T15:15:54.562Z,4.55
2023-01-17T15:18:22.518Z,4.38
2023-01-17T15:20:50.429Z,4.21
2023-01-17T15:23:18.784Z,4.05
2023-01-17T15:25:46.699Z,3.91
2023-01-17T15:28:15.764Z,3.75
2023-01-17T15:30:43.718Z,3.62
2023-01-17T15:33:11.653Z,3.46
2023-01-17T15:35:39.501Z,3.32
2023-01-17T15:38:07.638Z,3.22
2023-01-17T15:40:38.638Z,3.12
2023-01-17T15:43:06.835Z,3.02
2023-01-17T15:45:36.582Z,2.91
2023-01-17T15:48:04.596Z,2.80
2023-01-17T15:50:32.417Z,2.69
2023-01-17T15:53:01.256Z,2.59
2023-01-17T15:55:29.298Z,2.48
2023-01-17T15:57:57.138Z,2.37
2023-01-17T16:00:25.645Z,2.25
2023-01-17T16:02:55.774Z,2.14
2023-01-17T16:05:24.436Z,2.07
2023-01-17T16:07:52.562Z,2.03
2023-01-17T16:10:20.871Z,1.98
2023-01-17T16:12:49.094Z,1.91
2023-01-17T16:15:18.446Z,1.84
2023-01-17T16:17:48.048Z,1.75
2023-01-17T16:20:16.565Z,1.66
2023-01-17T16:22:45.219Z,1.58
2023-01-17T16:25:13.090Z,1.53
2023-01-17T16:27:41.787Z,1.45
2023-01-17T16:30:10.524Z,1.37
2023-01-17T16:32:38.894Z,1.30
2023-01-17T16:35:07.113Z,1.26
2023-01-17T16:37:35.093Z,1.19
2023-01-17T16:40:03.073Z,1.15
2023-01-17T16:42:31.622Z,1.10
2023-01-17T16:44:59.613Z,1.09
2023-01-17T16:47:27.396Z,1.07
2023-01-17T16:49:55.386Z,1.04
2023-01-17T16:52:23.387Z,1.00
2023-01-17T16:54:52.073Z,0.97
2023-01-17T16:57:19.878Z,0.94
2023-01-17T16:59:50.986Z,0.91
2023-01-17T17:02:19.239Z,0.89
2023-01-17T17:04:47.189Z,0.87
2023-01-17T17:07:16.389Z,0.87
2023-01-17T17:09:44.190Z,0.87
2023-01-17T17:12:12.009Z,0.82
2023-01-17T17:14:40.465Z,0.76
2023-01-17T17:17:08.421Z,0.67
2023-01-17T17:19:36.846Z,0.58
2023-01-17T17:22:06.898Z,0.53
2023-01-17T17:24:34.743Z,0.53
2023-01-17T17:27:02.628Z,0.52
2023-01-17T17:29:30.633Z,0.50
2023-01-17T17:31:59.089Z,0.46
2023-01-17T17:34:28.503Z,0.45
2023-01-17T17:36:57.080Z,0.41
2023-01-17T17:39:24.991Z,0.40
2023-01-17T17:41:53.048Z,0.40
2023-01-17T17:44:21.800Z,0.40
2023-01-17T17:46:51.566Z,0.40
2023-01-17T17:49:20.622Z,0.39
2023-01-17T17:51:48.586Z,0.40
2023-01-17T17:54:16.896Z,0.39
2023-01-17T17:56:48.211Z,0.33
2023-01-17T17:59:18.514Z,0.26
2023-01-17T18:01:46.494Z,0.21
2023-01-17T18:04:15.248Z,0.18
2023-01-17T18:06:43.119Z,0.18
2023-01-17T18:09:11.016Z,0.18
2023-01-17T18:11:39.133Z,0.17
2023-01-17T18:14:07.174Z,0.17
2023-01-17T18:16:35.796Z,0.15
2023-01-17T18:19:04.261Z,0.14
2023-01-17T18:21:33.049Z,0.14
2023-01-17T18:24:01.039Z,0.13
2023-01-17T18:26:28.989Z,0.10
2023-01-17T18:28:57.088Z,0.08
2023-01-17T18:31:25.435Z,0.09
2023-01-17T18:33:54.878Z,0.07
2023-01-17T18:36:23.652Z,0.04
2023-01-17T18:38:51.583Z,0.01
2023-01-17T18:41:19.942Z,-0.02
2023-01-17T18:43:48.039Z,-0.07
2023-01-17T18:46:16.761Z,-0.10
2023-01-17T18:48:44.716Z,-0.12
2023-01-17T18:51:12.990Z,-0.15
2023-01-17T18:53:40.975Z,-0.18
2023-01-17T18:56:08.926Z,-0.20
2023-01-17T18:58:37.656Z,-0.24
2023-01-17T19:01:05.740Z,-0.29
2023-01-17T19:03:34.241Z,-0.34
2023-01-17T19:06:02.245Z,-0.40
2023-01-17T19:08:30.068Z,-0.43
2023-01-17T19:10:58.482Z,-0.45
2023-01-17T19:13:26.374Z,-0.45
2023-01-17T19:15:54.115Z,-0.47
2023-01-17T19:18:22.057Z,-0.50
2023-01-17T19:20:50.086Z,-0.54
2023-01-17T19:23:18.224Z,-0.55
2023-01-17T19:25:47.038Z,-0.55
2023-01-17T19:28:15.091Z,-0.57
2023-01-17T19:30:42.954Z,-0.59
2023-01-17T19:33:11.014Z,-0.60
2023-01-17T19:35:39.092Z,-0.59
2023-01-17T19:38:07.073Z,-0.61
2023-01-17T19:40:35.038Z,-0.65
2023-01-17T19:43:04.707Z,-0.66
2023-01-17T19:45:32.710Z,-0.64
2023-01-17T19:48:03.444Z,-0.64
2023-01-17T19:50:31.435Z,-0.64
2023-01-17T19:52:59.244Z,-0.66
2023-01-17T19:55:27.318Z,-0.68
2023-01-17T19:57:55.385Z,-0.69
2023-01-17T20:00:30.069Z,-0.69
2023-01-17T20:02:58.460Z,-0.69
2023-01-17T20:05:26.397Z,-0.71
2023-01-17T20:07:54.609Z,-0.71
2023-01-17T20:10:22.963Z,-0.72
2023-01-17T20:12:51.465Z,-0.72
2023-01-17T20:15:19.482Z,-0.74
2023-01-17T20:17:47.454Z,-0.75
2023-01-17T20:20:16.182Z,-0.74
2023-01-17T20:22:44.116Z,-0.78
2023-01-17T20:25:12.634Z,-0.80
2023-01-17T20:27:41.159Z,-0.82
2023-01-17T20:30:19.599Z,-0.84
2023-01-17T20:32:48.294Z,-0.85
2023-01-17T20:35:16.883Z,-0.86
2023-01-17T20:37:44.711Z,-0.87
2023-01-17T20:40:12.840Z,-0.91
2023-01-17T20:42:40.731Z,-0.93
2023-01-17T20:45:09.231Z,-0.95
2023-01-17T20:47:37.637Z,-0.97
2023-01-17T20:50:05.771Z,-1.00
2023-01-17T20:52:33.606Z,-1.01
2023-01-17T20:55:01.630Z,-0.99
2023-01-17T20:57:31.530Z,-0.94
2023-01-17T20:59:59.670Z,-0.91
2023-01-17T21:02:28.854Z,-0.87
2023-01-17T21:04:56.775Z,-0.86
2023-01-17T21:07:24.681Z,-0.84
2023-01-17T21:09:52.701Z,-0.87
2023-01-17T21:12:23.504Z,-0.90
2023-01-17T21:14:51.407Z,-0.94
2023-01-17T21:17:19.691Z,-0.99
2023-01-17T21:19:47.636Z,-1.02
2023-01-17T21:22:16.990Z,-1.05
2023-01-17T21:24:45.460Z,-1.07
2023-01-17T21:27:13.315Z,-1.10
2023-01-17T21:29:41.123Z,-1.13
2023-01-17T21:32:09.435Z,-1.16
2023-01-17T21:34:37.784Z,-1.17
2023-01-17T21:37:06.680Z,-1.18
2023-01-17T21:39:34.565Z,-1.18
2023-01-17T21:42:02.494Z,-1.19
2023-01-17T21:44:36.558Z,-1.19
2023-01-17T21:47:04.579Z,-1.22
2023-01-17T21:49:33.162Z,-1.22
2023-01-17T21:52:18.422Z,-1.23
2023-01-17T21:54:59.956Z,-1.26
2023-01-17T21:57:45.136Z,-1.30
2023-01-17T22:00:14.883Z,-1.35
2023-01-17T22:02:42.812Z,-1.40
2023-01-17T22:05:10.776Z,-1.45
2023-01-17T22:07:39.653Z,-1.48
2023-01-17T22:10:07.499Z,-1.49
2023-01-17T22:12:36.142Z,-1.51
2023-01-17T22:15:04.326Z,-1.51
2023-01-17T22:17:32.198Z,-1.52
2023-01-17T22:20:00.156Z,-1.54
2023-01-17T22:22:27.991Z,-1.57
2023-01-17T22:24:57.164Z,-1.58
2023-01-17T22:27:25.167Z,-1.59
2023-01-17T22:29:52.989Z,-1.59
2023-01-17T22:32:20.725Z,-1.59
2023-01-17T22:34:48.895Z,-1.57
2023-01-17T22:37:19.047Z,-1.57
2023-01-17T22:39:46.747Z,-1.59
2023-01-17T22:42:15.438Z,-1.61
2023-01-17T22:44:43.281Z,-1.62
2023-01-17T22:47:11.116Z,-1.61
2023-01-17T22:49:39.400Z,-1.60
2023-01-17T22:52:07.249Z,-1.61
2023-01-17T22:54:35.069Z,-1.63
2023-01-17T22:57:03.291Z,-1.67
2023-01-17T22:59:34.020Z,-1.70
2023-01-17T23:02:01.828Z,-1.72
2023-01-17T23:04:29.779Z,-1.76
2023-01-17T23:06:57.737Z,-1.77
2023-01-17T23:09:25.473Z,-1.79
2023-01-17T23:11:54.324Z,-1.80
2023-01-17T23:14:22.861Z,-1.81
2023-01-17T23:17:07.927Z,-1.80
2023-01-17T23:19:36.032Z,-1.82
2023-01-17T23:22:19.499Z,-1.83
2023-01-17T23:24:47.851Z,-1.82
2023-01-17T23:27:33.171Z,-1.81
2023-01-17T23:30:01.671Z,-1.83
2023-01-17T23:32:29.391Z,-1.84
2023-01-17T23:34:57.800Z,-1.82
2023-01-17T23:37:45.476Z,-1.82
2023-01-17T23:40:13.887Z,-1.82
2023-01-17T23:42:59.134Z,-1.83
2023-01-17T23:45:27.209Z,-1.83
2023-01-17T23:47:54.821Z,-1.84
2023-01-17T23:50:22.492Z,-1.84
2023-01-17T23:52:50.180Z,-1.86
2023-01-17T23:55:18.212Z,-1.89
2023-01-17T23:57:46.411Z,-1.92
